KIWD

Details ICAO KIWD
Name GOGEBIC IRON CO
Region United States
Timezone America/Menominee (UTC-5.0)
Plans Departing 4
Arriving 10
Stats Elevation 1,230 ft / 375 m (AMSL)
Location 46.527551° -90.131344°
Runways 1
Magnetic Variation 2.677° W
Sunrise 2018-05-26 10:16:57 UTC / 2018-05-26 05:16:57 Local
Sunset 2018-05-27 01:41:07 UTC / 2018-05-26 20:41:07 Local
Advertisement - Login to hide

Runways

ID Width Length Bearing (true) Bearing (mag) Surface Threshold Offset Overrun Length
09 131 ft / 40 m 6,484 ft / 1,976 m 90.20° 92.88° Asphalt 0 ft / 0 m 0 ft / 0 m
27 131 ft / 40 m 6,484 ft / 1,976 m 270.22° 272.90° Asphalt 0 ft / 0 m 0 ft / 0 m

Approach Navaids

Runway Type Ident Frequency Range Bearing (true) Bearing (mag) Slope Elevation
27 Localiser IIWD 111.50 MHz 18 nm / 33 km 270.02° 272.70° - 1,230 ft / 375 m (AMSL)
27 Glidescope IIWD 111.50 MHz 10 nm / 19 km 270.21° 272.88° 3.00° 1,230 ft / 375 m (AMSL)

Map

Weather


0- 5 10 15 20 25 30 35+ Temperature / ° C

Clouds and Precipitation
Forecast for 2018-05-26 18:00 UTC. Updated 3 hours ago

Ground ~20,000 ft ~40,000 ft Winds

METAR

KIWD 261956Z AUTO 28011KT 10SM CLR 31/13 A2966 RMK AO2 SLP036 T03060128 PNO $

TAF

TAF KIWD 261730Z 2618/2718 24006KT P6SM SCT120 FM262100 30007KT P6SM VCSH SCT200 FM262300 32004KT P6SM SCT200

Frequencies

Recorded 125.17 MHz AWOS 3
Unicom 122.80 MHz CTAF/UNICOM
Warning: Do not use this data for real-world aviation or navigation. No guarantee of current accuracy is given.